Time;durP1;ratioP1;P1;durP2;ratioP2;P2;SDS_P1;SDS_P2;PMS_P1;PMS_P2;Temp;Humidity;BMP_temperature;BMP_pressure;BME280_temperature;BME280_humidity;BME280_pressure;Samples;Min_cycle;Max_cycle;Signal;HPM_P1;HPM_P2
2023/03/17 00:08:39;;;;;;;;;;;;;;;9.11;48.04;101545.09;5144633;23;19925;-83
2023/03/17 00:11:31;;;;;;;;;;;;;;;9.04;48.22;101549.25;5051471;28;19926;-82
2023/03/17 00:14:29;;;;;;;;;;;;;;;8.99;48.22;101550.91;5037931;28;19917;-82
2023/03/17 02:09:44;;;;;;;;;;;;;;;8.07;48.55;101479.44;5988810;23;19925;-85
2023/03/17 02:12:34;;;;;;;;;;;;;;;8.14;48.87;101481.81;5169794;23;19910;-85
2023/03/17 02:21:24;;;;;;;;;;;;;;;8.22;48.44;101485.84;5016505;28;19926;-82
2023/03/17 02:24:20;;;;;;;;;;;;;;;8.01;48.85;101483.25;5022462;28;19905;-82
2023/03/17 02:27:29;;;;;;;;;;;;;;;8.06;49.32;101485.94;5018940;28;19930;-82
2023/03/17 02:30:18;;;;;;;;;;;;;;;8.10;49.01;101488.88;5008922;28;19918;-83
2023/03/17 02:33:08;;;;;;;;;;;;;;;8.00;48.71;101478.09;5025340;28;19926;-82
2023/03/17 02:35:56;;;;;;;;;;;;;;;7.91;49.56;101485.19;5023158;28;19910;-83
2023/03/17 02:38:51;;;;;;;;;;;;;;;8.04;49.05;101482.69;5046578;28;19909;-84
2023/03/17 02:41:38;;;;;;;;;;;;;;;8.11;48.74;101487.81;5040878;28;19910;-83
2023/03/17 02:44:25;;;;;;;;;;;;;;;8.12;48.20;101474.00;5052177;23;19918;-82
2023/03/17 02:47:18;;;;;;;;;;;;;;;7.99;49.03;101479.19;5020137;28;19910;-82
2023/03/17 02:50:10;;;;;;;;;;;;;;;8.08;48.81;101482.94;5021684;28;19910;-83
2023/03/17 02:56:03;;;;;;;;;;;;;;;7.85;49.13;101475.47;5221175;23;19920;-83
2023/03/17 02:58:55;;;;;;;;;;;;;;;7.86;48.70;101474.41;5031444;28;19921;-83
2023/03/17 03:01:47;;;;;;;;;;;;;;;7.81;49.21;101477.13;5039528;28;19925;-80
2023/03/17 03:04:39;;;;;;;;;;;;;;;7.81;49.28;101477.94;5020897;28;19917;-81
2023/03/17 03:07:28;;;;;;;;;;;;;;;7.88;48.86;101474.91;5015098;28;19925;-80
2023/03/17 03:10:17;;;;;;;;;;;;;;;7.87;48.31;101467.91;5020771;28;19917;-80
2023/03/17 03:13:09;;;;;;;;;;;;;;;7.89;49.16;101479.25;4996813;28;20285;-81
2023/03/17 03:16:01;;;;;;;;;;;;;;;7.67;49.42;101475.00;5008233;28;19918;-82
2023/03/17 03:18:53;;;;;;;;;;;;;;;7.78;49.01;101483.88;5022573;28;19918;-82
2023/03/17 03:21:50;;;;;;;;;;;;;;;7.79;49.20;101479.28;5020234;28;19918;-81
2023/03/17 03:24:42;;;;;;;;;;;;;;;7.84;48.80;101484.69;5020637;28;19917;-81
2023/03/17 03:27:31;;;;;;;;;;;;;;;7.80;48.76;101470.91;5015397;28;19921;-81
2023/03/17 03:30:19;;;;;;;;;;;;;;;7.94;49.38;101481.91;5020272;28;19917;-80
2023/03/17 03:33:05;;;;;;;;;;;;;;;7.98;50.02;101482.97;5025126;28;19917;-81
2023/03/17 03:35:57;;;;;;;;;;;;;;;7.95;49.13;101484.34;5039167;28;19917;-81
2023/03/17 03:38:46;;;;;;;;;;;;;;;8.05;48.65;101478.88;5040478;28;19917;-80
2023/03/17 03:41:31;;;;;;;;;;;;;;;8.02;48.98;101479.47;5030995;28;19921;-81
2023/03/17 03:44:17;;;;;;;;;;;;;;;7.94;49.15;101482.72;5020814;28;19918;-81
2023/03/17 03:47:09;;;;;;;;;;;;;;;8.07;49.22;101470.50;5015733;28;19921;-81
2023/03/17 03:50:01;;;;;;;;;;;;;;;8.04;48.31;101473.75;5020182;28;19917;-81
2023/03/17 03:52:51;;;;;;;;;;;;;;;8.15;48.84;101475.31;5018729;28;19917;-81
2023/03/17 03:55:40;;;;;;;;;;;;;;;8.16;48.22;101477.75;5016399;28;19917;-81
2023/03/17 03:58:27;;;;;;;;;;;;;;;8.18;48.29;101485.56;5020144;28;19913;-80
2023/03/17 04:01:14;;;;;;;;;;;;;;;7.97;47.67;101487.63;5020588;28;19921;-81
2023/03/17 04:04:06;;;;;;;;;;;;;;;7.99;48.05;101482.72;5028000;28;19922;-82
2023/03/17 04:07:06;;;;;;;;;;;;;;;7.98;48.24;101488.41;5138862;23;19910;-83
2023/03/17 04:09:58;;;;;;;;;;;;;;;7.96;48.12;101485.19;5039676;28;19921;-82
2023/03/17 04:12:45;;;;;;;;;;;;;;;7.85;48.91;101483.59;5029269;28;19921;-82
2023/03/17 04:15:37;;;;;;;;;;;;;;;7.98;49.79;101483.78;5040540;28;19917;-82
2023/03/17 04:18:29;;;;;;;;;;;;;;;7.95;47.92;101483.56;5039030;28;19917;-81
2023/03/17 04:21:19;;;;;;;;;;;;;;;7.92;47.71;101492.25;5037141;28;19913;-82
2023/03/17 04:24:08;;;;;;;;;;;;;;;7.93;47.96;101491.94;5044607;28;19915;-82
2023/03/17 04:26:56;;;;;;;;;;;;;;;7.90;47.87;101495.22;5038668;28;19909;-83
2023/03/17 04:29:43;;;;;;;;;;;;;;;7.80;48.32;101491.75;5065340;23;19929;-82
2023/03/17 04:32:32;;;;;;;;;;;;;;;7.72;48.67;101502.03;5034204;28;19906;-83
2023/03/17 04:35:21;;;;;;;;;;;;;;;7.70;48.45;101498.81;5052526;28;19905;-83
2023/03/17 04:38:12;;;;;;;;;;;;;;;7.93;48.86;101496.53;5027813;28;19929;-82
2023/03/17 04:41:02;;;;;;;;;;;;;;;7.78;47.91;101494.72;5026811;28;19909;-83
2023/03/17 04:43:51;;;;;;;;;;;;;;;7.73;48.20;101490.13;5020651;28;19913;-81
2023/03/17 04:46:41;;;;;;;;;;;;;;;7.63;48.56;101487.47;5025672;28;19914;-84
2023/03/17 04:49:29;;;;;;;;;;;;;;;7.55;48.88;101482.63;5028791;28;19910;-84
2023/03/17 04:52:16;;;;;;;;;;;;;;;7.61;49.27;101484.25;5026612;28;19913;-83
2023/03/17 04:55:10;;;;;;;;;;;;;;;7.72;49.50;101482.28;5029489;28;19909;-84
2023/03/17 04:57:55;;;;;;;;;;;;;;;7.64;48.23;101483.69;5026798;28;19909;-83
2023/03/17 05:00:44;;;;;;;;;;;;;;;7.81;48.69;101477.94;5045680;28;19909;-84
2023/03/17 05:03:38;;;;;;;;;;;;;;;7.72;48.46;101477.69;5038677;28;19915;-84
2023/03/17 05:06:43;;;;;;;;;;;;;;;7.78;49.97;101481.19;5155134;23;19925;-82
2023/03/17 05:09:30;;;;;;;;;;;;;;;7.78;48.04;101483.06;5026435;28;19921;-82
2023/03/17 05:12:23;;;;;;;;;;;;;;;7.81;48.91;101482.53;5034707;28;19917;-82
2023/03/17 05:15:10;;;;;;;;;;;;;;;7.68;48.87;101482.03;5045593;28;19905;-82
2023/03/17 05:17:55;;;;;;;;;;;;;;;7.68;49.20;101476.63;5030276;28;19918;-82
2023/03/17 05:20:44;;;;;;;;;;;;;;;7.74;48.94;101483.66;5043097;28;19917;-82
2023/03/17 05:23:32;;;;;;;;;;;;;;;7.68;49.03;101490.16;5050472;28;19918;-82
2023/03/17 05:26:20;;;;;;;;;;;;;;;7.83;49.02;101485.75;5039275;28;19917;-82
2023/03/17 05:29:09;;;;;;;;;;;;;;;7.84;49.79;101487.38;5019439;28;19917;-82
2023/03/17 05:31:56;;;;;;;;;;;;;;;7.92;49.55;101482.22;5045772;28;19917;-82
2023/03/17 05:35:15;;;;;;;;;;;;;;;7.79;48.49;101480.09;5032125;28;19917;-82
2023/03/17 05:38:02;;;;;;;;;;;;;;;7.75;48.39;101479.03;5032042;28;19918;-82
2023/03/17 05:40:52;;;;;;;;;;;;;;;7.61;49.74;101486.97;5032983;28;19921;-82
2023/03/17 05:43:40;;;;;;;;;;;;;;;7.80;50.13;101478.22;5030558;28;19918;-81
2023/03/17 05:46:27;;;;;;;;;;;;;;;7.81;49.22;101480.66;5022418;28;19922;-81
2023/03/17 05:49:14;;;;;;;;;;;;;;;7.77;48.81;101481.47;5023923;28;19917;-79
2023/03/17 05:56:00;;;;;;;;;;;;;;;7.88;50.73;101483.84;5001346;28;19917;-81
2023/03/17 05:58:52;;;;;;;;;;;;;;;8.05;50.96;101481.59;5006986;28;19922;-81
2023/03/17 06:01:39;;;;;;;;;;;;;;;8.08;50.99;101488.34;5027322;28;20373;-81
2023/03/17 06:04:26;;;;;;;;;;;;;;;8.05;50.78;101487.00;5015567;28;19918;-81
2023/03/17 06:07:15;;;;;;;;;;;;;;;8.22;51.00;101483.94;5025000;28;20376;-81
2023/03/17 06:10:04;;;;;;;;;;;;;;;8.23;49.39;101485.53;5022390;28;19917;-80
2023/03/17 06:13:05;;;;;;;;;;;;;;;8.37;51.11;101481.16;5022335;28;19918;-81
2023/03/17 06:15:52;;;;;;;;;;;;;;;8.59;49.92;101478.00;5029657;28;19917;-79
2023/03/17 06:18:57;;;;;;;;;;;;;;;8.62;49.76;101477.47;5022086;28;19913;-79
2023/03/17 06:25:15;;;;;;;;;;;;;;;8.81;49.46;101483.81;5022055;28;19925;-79
2023/03/17 06:28:04;;;;;;;;;;;;;;;8.87;49.70;101484.56;5022320;28;20376;-80
2023/03/17 06:31:35;;;;;;;;;;;;;;;8.83;50.14;101473.50;5001931;28;20536;-80
2023/03/17 06:34:22;;;;;;;;;;;;;;;9.00;49.62;101486.59;5035475;28;19917;-81
2023/03/17 06:37:12;;;;;;;;;;;;;;;8.97;49.62;101490.72;5018873;28;19925;-79
2023/03/17 06:40:04;;;;;;;;;;;;;;;9.08;49.06;101480.59;5021776;28;19918;-80
2023/03/17 06:42:51;;;;;;;;;;;;;;;9.11;49.30;101481.91;5021216;28;19925;-80
2023/03/17 06:46:00;;;;;;;;;;;;;;;9.22;48.38;101486.13;5020421;28;19917;-80
2023/03/17 06:48:50;;;;;;;;;;;;;;;9.23;47.82;101488.56;5021297;28;19925;-80
2023/03/17 06:52:03;;;;;;;;;;;;;;;9.26;47.90;101485.25;4996968;28;19929;-79
2023/03/17 06:55:32;;;;;;;;;;;;;;;9.43;47.97;101493.78;5016525;28;19921;-80
2023/03/17 06:58:40;;;;;;;;;;;;;;;9.47;47.96;101498.63;5020935;28;19918;-80
2023/03/17 07:01:52;;;;;;;;;;;;;;;9.60;48.53;101482.44;5015756;28;19929;-80
2023/03/17 07:05:11;;;;;;;;;;;;;;;9.65;47.39;101485.09;5022780;28;19917;-81
2023/03/17 07:08:21;;;;;;;;;;;;;;;9.72;47.66;101485.56;5020683;28;19921;-81
2023/03/17 07:12:15;;;;;;;;;;;;;;;9.80;47.50;101489.56;4953224;29;20358;-81
2023/03/17 07:20:15;;;;;;;;;;;;;;;10.00;47.44;101500.16;4925962;29;19919;-81
2023/03/17 07:23:56;;;;;;;;;;;;;;;10.03;46.63;101498.75;4879332;29;19924;-81
2023/03/17 07:27:01;;;;;;;;;;;;;;;10.15;45.36;101493.72;4874220;29;19920;-81
2023/03/17 07:31:13;;;;;;;;;;;;;;;10.31;46.23;101497.84;4927241;29;19919;-81
2023/03/17 07:34:25;;;;;;;;;;;;;;;10.39;46.92;101493.66;4984199;28;20381;-82
2023/03/17 07:37:17;;;;;;;;;;;;;;;10.36;46.07;101500.50;5016467;28;19918;-83
2023/03/17 07:40:09;;;;;;;;;;;;;;;10.49;44.81;101496.22;5020326;28;19917;-80
2023/03/17 07:43:02;;;;;;;;;;;;;;;10.54;47.00;101502.41;5020308;28;19925;-82
2023/03/17 07:45:54;;;;;;;;;;;;;;;10.69;45.59;101501.34;5019088;28;19918;-82
2023/03/17 07:48:44;;;;;;;;;;;;;;;10.81;45.36;101498.97;5020196;28;19922;-81
2023/03/17 07:51:35;;;;;;;;;;;;;;;10.90;43.77;101499.09;5015048;28;19917;-80
2023/03/17 07:54:27;;;;;;;;;;;;;;;11.02;41.45;101502.94;5010424;28;19922;-79
2023/03/17 07:57:19;;;;;;;;;;;;;;;11.15;41.14;101501.38;5011215;28;19918;-78
2023/03/17 08:00:15;;;;;;;504.42;42.30;;;;;;;11.63;45.70;101510.00;5017117;28;20396;-76
2023/03/17 08:03:10;;;;;;;91.93;14.00;;;;;;;12.55;52.00;101501.47;5009016;28;20042;-77
2023/03/17 08:06:04;;;;;;;35.13;5.83;;;;;;;13.07;52.83;101504.56;5005652;28;20038;-76
2023/03/17 08:08:59;;;;;;;4.28;1.27;;;;;;;13.37;51.83;101501.06;5010437;28;20057;-77
2023/03/17 08:11:54;;;;;;;4.88;1.45;;;;;;;13.62;51.79;101505.81;5016239;28;20041;-76
2023/03/17 08:14:49;;;;;;;5.87;1.33;;;;;;;13.81;50.98;101504.78;5015501;28;20057;-76
2023/03/17 08:17:41;;;;;;;1.40;0.93;;;;;;;13.92;50.38;101501.41;5017815;28;20272;-76
2023/03/17 08:20:33;;;;;;;5.70;1.13;;;;;;;13.92;46.99;101503.34;5020696;28;20284;-74
2023/03/17 08:23:25;;;;;;;1.00;0.60;;;;;;;13.97;48.34;101497.72;5012100;28;20053;-76
2023/03/17 08:26:17;;;;;;;3.22;0.70;;;;;;;13.95;44.61;101500.78;4997774;28;20803;-74
2023/03/17 08:29:12;;;;;;;2.80;0.53;;;;;;;13.95;44.84;101502.72;5001457;28;20061;-76
2023/03/17 08:32:01;;;;;;;1.52;0.68;;;;;;;14.04;45.87;101504.34;5018431;28;20041;-75
2023/03/17 08:34:56;;;;;;;1.35;0.60;;;;;;;14.09;46.26;101497.91;5021943;28;20068;-75
2023/03/17 08:37:54;;;;;;;2.17;1.00;;;;;;;14.09;46.00;101504.19;5009327;28;20046;-74
2023/03/17 08:40:48;;;;;;;1.05;0.55;;;;;;;14.04;44.16;101507.06;5011303;28;20086;-75
2023/03/17 08:43:44;;;;;;;1.67;0.95;;;;;;;14.02;44.03;101506.56;5022566;28;20045;-75
2023/03/17 08:46:39;;;;;;;1.25;0.75;;;;;;;14.07;44.79;101511.91;5032461;28;20064;-75
2023/03/17 08:49:34;;;;;;;1.92;1.10;;;;;;;14.04;44.10;101512.53;5020847;28;20065;-78
2023/03/17 08:52:30;;;;;;;2.40;0.95;;;;;;;14.01;42.61;101515.13;5017779;28;20409;-79
2023/03/17 08:55:24;;;;;;;3.93;1.70;;;;;;;13.93;41.13;101500.28;4996354;28;20057;-78
2023/03/17 08:58:19;;;;;;;2.35;1.10;;;;;;;13.94;41.97;101504.63;5002675;28;20037;-76
2023/03/17 09:01:09;;;;;;;6.22;1.20;;;;;;;13.94;41.44;101507.38;5011605;28;20053;-77
2023/03/17 09:04:04;;;;;;;3.13;1.45;;;;;;;13.92;40.51;101508.81;5013500;28;20049;-77
2023/03/17 09:06:56;;;;;;;4.07;1.70;;;;;;;13.95;41.37;101508.19;5000152;28;20413;-78
2023/03/17 09:09:51;;;;;;;1.30;0.88;;;;;;;13.99;41.88;101499.03;5008393;28;20049;-79
2023/03/17 09:12:45;;;;;;;1.53;0.83;;;;;;;13.94;41.16;101501.91;5014347;28;20045;-77
2023/03/17 09:15:39;;;;;;;1.50;0.90;;;;;;;13.97;41.59;101494.97;5007961;28;20054;-77
2023/03/17 09:18:34;;;;;;;2.63;1.47;;;;;;;13.90;39.19;101497.41;5008747;28;20037;-77
2023/03/17 09:21:29;;;;;;;2.93;1.73;;;;;;;13.86;38.98;101496.44;5013794;28;20276;-77
2023/03/17 09:24:24;;;;;;;1.92;1.25;;;;;;;13.88;39.66;101494.16;5001529;28;20049;-77
2023/03/17 09:27:18;;;;;;;2.15;1.48;;;;;;;13.86;39.13;101490.97;5013826;28;20049;-78
2023/03/17 09:30:17;;;;;;;3.40;1.73;;;;;;;13.86;38.91;101496.44;4999831;28;20060;-79
2023/03/17 09:33:11;;;;;;;3.15;1.60;;;;;;;13.88;39.00;101488.69;5010838;28;20272;-77
2023/03/17 09:36:06;;;;;;;5.60;2.20;;;;;;;13.89;38.86;101495.78;5015459;28;20985;-76
2023/03/17 09:38:59;;;;;;;3.58;1.00;;;;;;;13.90;38.64;101491.94;5009063;28;20279;-78
2023/03/17 09:42:09;;;;;;;3.47;1.20;;;;;;;13.91;37.98;101493.53;5011145;28;20044;-82
2023/03/17 09:45:04;;;;;;;1.85;1.17;;;;;;;13.91;38.32;101499.81;5007112;28;20045;-78
2023/03/17 09:48:06;;;;;;;2.60;1.08;;;;;;;13.90;37.88;101491.94;4998734;28;20050;-76
2023/03/17 09:51:07;;;;;;;5.75;2.22;;;;;;;13.93;37.97;101494.00;5007417;28;20045;-77
2023/03/17 09:54:05;;;;;;;4.00;1.58;;;;;;;13.96;38.41;101490.66;5017841;28;20041;-77
2023/03/17 09:57:30;;;;;;;2.25;1.30;;;;;;;14.02;38.99;101494.81;5013464;28;20053;-76
2023/03/17 10:00:26;;;;;;;3.97;1.67;;;;;;;14.02;38.50;101490.16;5014827;28;20044;-77
2023/03/17 10:03:21;;;;;;;6.22;1.90;;;;;;;14.01;38.31;101483.09;5012808;28;20420;-76
2023/03/17 10:06:38;;;;;;;9.23;2.10;;;;;;;14.06;38.76;101485.69;5008620;28;20045;-79
2023/03/17 10:09:39;;;;;;;14.02;2.50;;;;;;;14.14;39.03;101475.88;5013656;28;20524;-80
2023/03/17 10:12:43;;;;;;;39.90;3.90;;;;;;;14.40;34.47;101476.72;5014744;28;20057;-78
2023/03/17 10:15:39;;;;;;;4.50;2.00;;;;;;;14.84;29.79;101475.53;5017245;28;20432;-80
2023/03/17 10:18:38;;;;;;;3.00;1.48;;;;;;;14.89;30.85;101477.31;5011960;28;20037;-78
2023/03/17 10:21:43;;;;;;;3.85;1.83;;;;;;;15.20;30.00;101472.38;5014265;28;20052;-79
2023/03/17 10:24:35;;;;;;;5.13;1.15;;;;;;;14.93;29.48;101470.06;4995787;28;20054;-79
2023/03/17 10:27:32;;;;;;;7.45;1.88;;;;;;;15.32;30.00;101472.53;4996137;28;20057;-77
2023/03/17 10:30:25;;;;;;;4.43;1.83;;;;;;;15.34;28.88;101462.00;4996712;28;20069;-84
2023/03/17 10:33:20;;;;;;;3.60;1.83;;;;;;;15.22;29.10;101461.13;5008797;28;20045;-76
2023/03/17 10:36:32;;;;;;;16.20;2.20;;;;;;;14.95;29.33;101465.88;5002469;28;20405;-77
2023/03/17 10:39:29;;;;;;;3.10;1.83;;;;;;;14.90;29.17;101459.75;4999859;28;20053;-76
2023/03/17 10:42:31;;;;;;;11.07;1.40;;;;;;;14.82;29.46;101464.13;5010258;28;20061;-77
2023/03/17 10:45:37;;;;;;;9.13;2.65;;;;;;;14.60;29.63;101447.88;5008370;28;20057;-77
2023/03/17 10:48:31;;;;;;;4.50;2.15;;;;;;;14.44;30.62;101446.78;5013188;28;20049;-78
2023/03/17 10:51:41;;;;;;;6.47;1.83;;;;;;;13.91;30.03;101444.31;5010096;28;20053;-77
2023/03/17 10:54:35;;;;;;;4.90;2.20;;;;;;;14.36;29.42;101447.56;5016230;28;20258;-77
2023/03/17 10:57:26;;;;;;;5.97;2.23;;;;;;;14.38;29.26;101443.41;5009128;28;20044;-78
2023/03/17 11:00:21;;;;;;;4.68;2.08;;;;;;;14.91;29.58;101448.47;5009076;28;20295;-77
2023/03/17 11:03:17;;;;;;;6.97;2.50;;;;;;;15.66;27.83;101444.16;5013511;28;20049;-77
2023/03/17 11:06:20;;;;;;;7.07;2.17;;;;;;;16.08;26.88;101442.28;5007561;28;20041;-77
2023/03/17 11:09:11;;;;;;;;;;;;;;;21.60;20.32;101441.81;5013897;28;20045;-78
2023/03/17 11:12:20;;;;;;;;;;;;;;;26.56;15.71;101444.56;5006158;28;19914;-77
2023/03/17 11:15:18;;;;;;;5.00;2.22;;;;;;;23.52;18.98;101442.91;5014672;28;20767;-77
2023/03/17 11:18:36;;;;;;;6.07;2.22;;;;;;;24.96;15.78;101444.00;5009484;28;20037;-79
2023/03/17 11:21:45;;;;;;;6.03;2.17;;;;;;;27.86;14.55;101439.16;5008393;28;20065;-78
2023/03/17 11:24:44;;;;;;;9.38;2.33;;;;;;;26.60;15.19;101437.75;5011631;28;20052;-77
2023/03/17 11:28:00;;;;;;;4.75;2.42;;;;;;;28.91;14.16;101437.00;5011727;28;20056;-76
2023/03/17 11:31:11;;;;;;;4.65;2.45;;;;;;;30.98;12.17;101437.44;5006466;28;20045;-77
2023/03/17 11:34:17;;;;;;;7.68;2.47;;;;;;;31.26;11.81;101419.09;5008844;28;20516;-78
2023/03/17 11:37:31;;;;;;;;;;;;;;;27.18;14.51;101420.19;5006417;28;20129;-77
2023/03/17 11:40:26;;;;;;;;;;;;;;;26.76;15.38;101406.56;5000028;28;19917;-76
2023/03/17 11:43:19;;;;;;;;;;;;;;;28.41;14.14;101410.94;5013483;28;20300;-77
2023/03/17 11:46:26;;;;;;;;;;;;;;;30.07;13.16;101412.97;5022131;28;19913;-77
2023/03/17 11:49:35;;;;;;;;;;;;;;;30.68;13.73;101410.44;5014431;28;19917;-77
2023/03/17 11:52:29;;;;;;;;;;;;;;;28.87;12.96;101407.47;5011728;28;19913;-77
2023/03/17 11:55:37;;;;;;;;;;;;;;;28.40;14.51;101396.16;5010955;28;20481;-77
2023/03/17 11:58:32;;;;;;;;;;;;;;;26.56;14.74;101391.53;5013649;28;19918;-77
2023/03/17 12:01:31;;;;;;;;;;;;;;;25.02;15.88;101386.75;5017709;28;20300;-77
2023/03/17 12:04:25;;;;;;;;;;;;;;;30.68;12.46;101392.81;5009060;28;19913;-77
2023/03/17 12:07:34;;;;;;;;;;;;;;;30.65;11.90;101388.84;5006012;28;19914;-77
2023/03/17 12:10:28;;;;;;;;;;;;;;;30.61;12.08;101379.72;4983165;28;20377;-77
2023/03/17 12:13:30;;;;;;;;;;;;;;;28.82;12.49;101385.56;5030700;28;19913;-77
2023/03/17 12:16:20;;;;;;;;;;;;;;;31.54;11.30;101369.75;5041114;28;19913;-78
2023/03/17 12:19:12;;;;;;;;;;;;;;;30.65;11.77;101368.41;5023543;28;19913;-77
2023/03/17 12:22:21;;;;;;;;;;;;;;;35.02;9.35;101379.88;5022082;28;19917;-77
2023/03/17 12:25:11;;;;;;;;;;;;;;;27.96;12.88;101374.72;5015687;28;20369;-77
2023/03/17 12:28:02;;;;;;;;;;;;;;;28.53;13.05;101362.00;5017515;28;19921;-82
2023/03/17 12:30:58;;;;;;;;;;;;;;;34.90;9.25;101366.66;5019269;28;19917;-80
2023/03/17 12:33:50;;;;;;;;;;;;;;;33.86;10.09;101357.84;5013299;28;19913;-82
2023/03/17 12:36:43;;;;;;;;;;;;;;;31.55;12.03;101341.19;5017707;28;20320;-79
2023/03/17 12:39:35;;;;;;;;;;;;;;;31.14;11.98;101344.69;5025020;28;20376;-77
2023/03/17 12:42:37;;;;;;;;;;;;;;;26.64;13.74;101331.69;5016713;28;19913;-79
2023/03/17 12:45:48;;;;;;;;;;;;;;;32.00;11.36;101335.47;5027491;28;19914;-79
2023/03/17 12:48:45;;;;;;;;;;;;;;;32.72;9.71;101334.84;5021892;28;19921;-79
2023/03/17 12:51:54;;;;;;;;;;;;;;;30.17;12.31;101320.13;5023454;28;20300;-79
2023/03/17 12:54:50;;;;;;;;;;;;;;;31.55;12.63;101315.06;5016409;28;19913;-79
2023/03/17 12:57:46;;;;;;;;;;;;;;;30.28;11.55;101313.50;5000720;28;19913;-79
2023/03/17 13:00:48;;;;;;;;;;;;;;;28.90;12.71;101309.41;5010223;28;19913;-78
2023/03/17 13:03:46;;;;;;;;;;;;;;;34.16;9.55;101301.84;5022020;28;19921;-80
2023/03/17 13:06:45;;;;;;;;;;;;;;;33.71;10.21;101310.88;5018767;28;19921;-79
2023/03/17 13:13:26;;;;;;;;;;;;;;;30.20;11.32;101298.84;5003736;28;19914;-89
2023/03/17 13:16:27;;;;;;;;;;;;;;;31.25;11.06;101288.22;5018194;28;19913;-88
2023/03/17 13:19:25;;;;;;;;;;;;;;;27.56;13.23;101277.78;5003056;28;19913;-89
2023/03/17 13:22:16;;;;;;;;;;;;;;;30.65;11.84;101284.94;5022959;28;19913;-87
2023/03/17 13:25:24;;;;;;;;;;;;;;;31.40;10.50;101284.56;5018088;28;20293;-89
2023/03/17 13:28:22;;;;;;;;;;;;;;;30.52;10.94;101272.84;4994277;28;19917;-88
2023/03/17 13:31:33;;;;;;;;;;;;;;;32.57;9.61;101274.56;5008975;28;20389;-89
2023/03/17 13:34:34;;;;;;;;;;;;;;;29.82;11.47;101261.97;5014457;28;19913;-86
2023/03/17 13:37:31;;;;;;;;;;;;;;;31.33;10.86;101261.50;4986607;28;19917;-88
2023/03/17 13:40:36;;;;;;;;;;;;;;;31.73;10.22;101267.59;5007017;28;19914;-89
2023/03/17 13:43:44;;;;;;;;;;;;;;;32.12;10.46;101261.56;5007213;28;19913;-87
2023/03/17 13:46:37;;;;;;;;;;;;;;;29.86;10.96;101251.50;5004941;28;20292;-90
2023/03/17 13:49:30;;;;;;;;;;;;;;;32.63;10.30;101253.84;5010717;28;20385;-89
2023/03/17 13:52:27;;;;;;;;;;;;;;;32.14;9.95;101263.94;5004288;28;19914;-90
2023/03/17 13:55:20;;;;;;;;;;;;;;;29.87;11.54;101244.66;5017778;28;19913;-90
2023/03/17 13:58:10;;;;;;;;;;;;;;;31.31;11.26;101247.09;5016775;28;19914;-88
2023/03/17 14:01:06;;;;;;;;;;;;;;;32.73;9.84;101249.09;5007058;28;20285;-81
2023/03/17 14:04:03;;;;;;;;;;;;;;;31.30;10.99;101240.66;4999129;28;19913;-91
2023/03/17 14:06:53;;;;;;;;;;;;;;;30.62;11.21;101232.50;5009719;28;20293;-92
2023/03/17 14:09:45;;;;;;;;;;;;;;;30.39;11.14;101233.44;5029064;28;19917;-89
2023/03/17 14:12:43;;;;;;;;;;;;;;;29.50;11.63;101229.06;5021995;28;19917;-89
2023/03/17 14:15:45;;;;;;;;;;;;;;;30.66;10.73;101230.38;5027835;28;19921;-92
2023/03/17 14:18:35;;;;;;;;;;;;;;;26.94;14.01;101225.78;5014003;28;19917;-92
2023/03/17 14:21:35;;;;;;;;;;;;;;;27.33;13.77;101230.16;5000536;28;19913;-91
2023/03/17 14:24:29;;;;;;;;;;;;;;;28.54;12.92;101218.06;5007926;28;19914;-91
2023/03/17 14:35:02;;;;;;;;;;;;;;;25.58;14.63;101212.44;5029384;28;20361;-92
2023/03/17 14:37:54;;;;;;;;;;;;;;;25.31;15.17;101203.75;5014999;28;19913;-91
2023/03/17 14:41:03;;;;;;;;;;;;;;;27.32;13.88;101201.44;5020412;28;19913;-91
2023/03/17 14:43:53;;;;;;;;;;;;;;;24.67;15.11;101188.00;5020836;28;19913;-91
2023/03/17 14:46:42;;;;;;;;;;;;;;;26.99;13.44;101193.81;5017967;28;19913;-91
2023/03/17 14:49:32;;;;;;;;;;;;;;;28.49;13.16;101191.34;5015604;28;19940;-92
2023/03/17 14:52:25;;;;;;;;;;;;;;;26.95;13.45;101184.69;5032264;28;20392;-91
2023/03/17 14:55:18;;;;;;;;;;;;;;;24.84;15.21;101188.38;5034187;28;20380;-89
2023/03/17 14:58:09;;;;;;;;;;;;;;;25.51;15.36;101186.16;5040233;28;20548;-90
2023/03/17 15:01:08;;;;;;;;;;;;;;;22.98;17.49;101183.66;5021263;28;19914;-83
2023/03/17 15:04:05;;;;;;;;;;;;;;;20.71;19.68;101174.94;4998872;28;19913;-83
2023/03/17 15:06:58;;;;;;;;;;;;;;;21.34;18.93;101169.47;4996748;28;19913;-83
2023/03/17 15:09:59;;;;;;;;;;;;;;;21.44;19.17;101173.53;4996522;28;19917;-83
2023/03/17 15:12:52;;;;;;;;;;;;;;;20.66;19.77;101172.50;5016972;28;19914;-84
2023/03/17 15:15:44;;;;;;;;;;;;;;;21.19;18.71;101164.94;5004984;28;19914;-85
2023/03/17 15:18:35;;;;;;;;;;;;;;;21.15;18.84;101169.63;5016256;28;19914;-84
2023/03/17 15:21:29;;;;;;;;;;;;;;;21.35;18.88;101164.75;5011982;28;19913;-83
2023/03/17 15:24:28;;;;;;;;;;;;;;;20.31;19.64;101167.22;5004592;28;19914;-82
2023/03/17 15:27:20;;;;;;;;;;;;;;;19.67;20.88;101169.97;4995283;28;19914;-84
2023/03/17 15:30:11;;;;;;;;;;;;;;;18.46;22.29;101158.28;5005491;28;19918;-85
2023/03/17 15:33:03;;;;;;;;;;;;;;;18.03;22.82;101159.97;5011543;28;20355;-84
2023/03/17 15:35:55;;;;;;;;;;;;;;;17.52;23.43;101156.25;5007954;28;20396;-83
2023/03/17 15:38:48;;;;;;;;;;;;;;;16.59;23.64;101146.44;5004928;28;19913;-83
2023/03/17 15:41:40;;;;;;;;;;;;;;;16.53;23.82;101142.28;5019165;28;19914;-85
2023/03/17 15:44:32;;;;;;;;;;;;;;;16.62;24.34;101143.00;5023544;28;19932;-83
2023/03/17 15:47:22;;;;;;;;;;;;;;;16.49;24.63;101141.38;5018248;28;20312;-84
2023/03/17 15:50:21;;;;;;;;;;;;;;;16.36;24.82;101148.00;5021643;28;20304;-85
2023/03/17 15:53:13;;;;;;;;;;;;;;;16.61;24.14;101142.19;5014831;28;19913;-85
2023/03/17 15:56:04;;;;;;;;;;;;;;;16.14;25.42;101141.03;5007729;28;19913;-85
2023/03/17 15:58:56;;;;;;;;;;;;;;;15.97;24.94;101135.75;5011061;28;19913;-86
2023/03/17 16:01:48;;;;;;;;;;;;;;;15.90;24.89;101132.78;5017316;28;19913;-83
2023/03/17 16:04:40;;;;;;;;;;;;;;;15.96;24.98;101136.91;5003889;28;19913;-85
2023/03/17 16:07:30;;;;;;;;;;;;;;;15.59;26.16;101131.34;5005638;28;19913;-84
2023/03/17 16:10:22;;;;;;;;;;;;;;;15.45;25.91;101130.81;5006778;28;19917;-84
2023/03/17 16:13:14;;;;;;;;;;;;;;;15.26;26.64;101127.78;5004374;28;19917;-84
2023/03/17 16:16:06;;;;;;;;;;;;;;;15.17;26.75;101130.59;5006300;28;20311;-85
2023/03/17 16:18:57;;;;;;;;;;;;;;;15.03;26.95;101124.59;5007806;28;19914;-85
2023/03/17 16:21:47;;;;;;;;;;;;;;;15.17;27.51;101127.88;5016529;28;19914;-86
2023/03/17 16:24:39;;;;;;;;;;;;;;;15.25;27.08;101116.00;5014801;28;19913;-83
2023/03/17 16:27:31;;;;;;;;;;;;;;;15.00;27.13;101114.31;5015179;28;19913;-84
2023/03/17 16:30:27;;;;;;;;;;;;;;;14.83;27.75;101120.72;5035504;28;19917;-85
2023/03/17 16:33:19;;;;;;;;;;;;;;;14.68;28.79;101113.09;5021046;28;19913;-84
2023/03/17 16:36:08;;;;;;;;;;;;;;;14.57;28.22;101117.38;5011149;28;19914;-88
2023/03/17 16:39:00;;;;;;;;;;;;;;;14.44;28.87;101112.94;5014137;28;19913;-89
2023/03/17 16:41:52;;;;;;;;;;;;;;;14.60;28.94;101111.22;5018051;28;20297;-86
2023/03/17 16:44:41;;;;;;;;;;;;;;;14.52;29.09;101118.38;5019648;28;19913;-85
2023/03/17 16:47:36;;;;;;;;;;;;;;;14.44;29.17;101121.13;5015781;28;19914;-90
2023/03/17 16:50:28;;;;;;;;;;;;;;;14.37;29.96;101116.22;4999636;28;19917;-93
2023/03/17 16:53:20;;;;;;;;;;;;;;;14.35;29.90;101112.16;5009020;28;19914;-91
2023/03/17 16:56:22;;;;;;;;;;;;;;;14.22;30.22;101115.94;5011483;28;19914;-94
2023/03/17 16:59:18;;;;;;;;;;;;;;;14.31;30.65;101116.69;5024779;28;20380;-92
2023/03/17 17:02:13;;;;;;;;;;;;;;;14.08;31.01;101122.41;5005389;28;19913;-91
2023/03/17 17:05:27;;;;;;;;;;;;;;;13.99;31.40;101120.84;5039063;28;19925;-94
2023/03/17 17:08:14;;;;;;;;;;;;;;;14.04;32.06;101116.00;5012334;28;19918;-92
2023/03/17 17:11:04;;;;;;;;;;;;;;;14.07;30.71;101125.47;5017653;28;19922;-94
2023/03/17 17:13:54;;;;;;;;;;;;;;;13.92;34.35;101129.56;5041060;28;19914;-93
2023/03/17 17:16:46;;;;;;;;;;;;;;;13.75;35.10;101120.63;5040260;28;19921;-94